Tres Piedras, NM (87577)

6:37 PM MDT on April 25, 2015 (GMT -0600)
RAWS | | Change Station
CLOSE
Current Station
Personal Weather Station
Location: Vallecitos, NM
Elevation: 8803 ft
Nearby Weather Stations

Elev 8803 ft 36.56 °N, 106.10 °W | Updated 33 minutes ago

Partly Cloudy
Partly Cloudy
48 °F
Feels Like 48 °F
N
3
Wind Variable Wind from SW
Gusts 14.0 mph

Today
High -- | Low -- °F
--% Chance of Precip.
Yesterday
High -- | Low -- °F
Precip. -- in
6:17 AM 7:46 PM
Waxing Crescent, 50% visible
Pressure 29.85 in
Visibility 10.0 miles
Clouds Few 6500 ft
Windchill 48 °F
Dew Point 30 °F
Humidity 49%
Rainfall in
Snow Depth Not available.
UV 1 out of 12
Pollen 10.60 out of 12
Air Quality Not available.
Flu Activity Local Activity
METAR KSKX 260015Z 24013KT 10SM FEW065 13/M03 A2985 RMK AO1

More Conditions Fewer Conditions

Pressure 29.85 in
Visibility 10.0 miles
Clouds Few 6500 ft
Windchill 48 °F
Dew Point 30 °F
Humidity 49%
Rainfall in
Snow Depth Not available.
UV 1 out of 12
Pollen 10.60 out of 12
Air Quality Not available.
Flu Activity Local Activity
METAR KSKX 260015Z 24013KT 10SM FEW065 13/M03 A2985 RMK AO1

More Conditions Fewer Conditions

Nowcast | as of 6:32 PM MDT on April 25, 2015

Spotty showers and a few short lived thunderstorms will move to the east and northeast over northern and central New Mexico this evening. Rainfall amounts will be mostly light...ranging from a trace to less than one tenth of an inch. Any storm will produce gusty erratic winds and a few cloud to ground lightning strikes. Some locations which will be affected include Alamo...Acoma...Quemado... Laguna...El Vado...Vaughn...and Bueyeros to Seneca.

×

10-Day Weather Forecast

Almanac

Astronomy

Apr. 25, 2015 Rise Set
Actual Time
Civil Twilight
Nautical Twilight
Astronomical Twilight
Moon
Length of Visible Light
Length of Day
Tomorrow will be .
, % of the Moon is Illuminated

Today's Extremes

State Highs State Lows

Community

WunderPhotos

Upload Photos

1,816,865 photos uploaded!

WunderBlogs® & News

Nearby

Air Quality

  Air Quality AQ Index Pollutant
Not available.

Snow Depth

Station Depth Elevation

Earthquake Activity

City Distance Mag. Time & Date
Minimum magnitude displayed is 2.5.

Coastal Water Temperatures

Place Temperature

Stations

Nearby Weather Stations

Station Location Temp. Windchill Dew Point Humidity Wind Precip. Elev Updated Type